createdAt,value
2022-09-06T00:01:14.094Z,101063.44
2022-09-06T00:03:40.869Z,101072.34
2022-09-06T00:06:12.240Z,101066.09
2022-09-06T00:08:38.933Z,101068.75
2022-09-06T00:11:06.147Z,101066.09
2022-09-06T00:13:32.842Z,101071.41
2022-09-06T00:16:30.119Z,101066.09
2022-09-06T00:18:57.136Z,101074.09
2022-09-06T00:21:28.540Z,101066.97
2022-09-06T00:23:55.131Z,101064.31
2022-09-06T00:26:22.100Z,101066.97
2022-09-06T00:28:48.796Z,101064.31
2022-09-06T00:31:20.140Z,101064.31
2022-09-06T00:33:46.867Z,101075.84
2022-09-06T00:36:13.508Z,101066.97
2022-09-06T00:38:40.167Z,101067.84
2022-09-06T00:41:07.656Z,101063.38
2022-09-06T00:43:34.407Z,101065.19
2022-09-06T00:46:01.286Z,101066.03
2022-09-06T00:48:28.059Z,101065.19
2022-09-06T00:50:58.601Z,101069.66
2022-09-06T00:53:25.176Z,101068.69
2022-09-06T00:55:51.847Z,101074.88
2022-09-06T00:58:18.433Z,101074.03
2022-09-06T01:00:45.000Z,101066.91
2022-09-06T01:03:11.582Z,101072.22
2022-09-06T01:05:46.196Z,101076.69
2022-09-06T01:08:34.660Z,101081.06
2022-09-06T01:11:07.329Z,101076.69
2022-09-06T01:13:42.065Z,101075.75
2022-09-06T01:16:39.476Z,101075.75
2022-09-06T01:19:31.212Z,101068.63
2022-09-06T01:22:24.231Z,101074.88
2022-09-06T01:25:00.763Z,101071.28
2022-09-06T01:28:01.483Z,101081.06
2022-09-06T01:30:28.056Z,101074.81
2022-09-06T01:33:07.097Z,101075.75
2022-09-06T01:36:01.128Z,101068.63
2022-09-06T01:38:27.973Z,101068.63
2022-09-06T01:40:54.649Z,101071.19
2022-09-06T01:43:28.478Z,101070.34
2022-09-06T01:46:00.554Z,101064.16
2022-09-06T01:48:39.952Z,101066.81
2022-09-06T01:51:22.935Z,101068.53
2022-09-06T01:54:14.113Z,101065.00
2022-09-06T01:56:50.970Z,101061.50
2022-09-06T01:59:40.614Z,101064.16
2022-09-06T02:02:30.162Z,101061.50
2022-09-06T02:05:01.366Z,101051.69
2022-09-06T02:07:29.423Z,101050.84
2022-09-06T02:10:24.663Z,101063.19
2022-09-06T02:12:53.276Z,101061.44
2022-09-06T02:15:26.842Z,101055.22
2022-09-06T02:18:13.328Z,101064.09
2022-09-06T02:20:48.254Z,101060.53
2022-09-06T02:23:14.839Z,101066.75
2022-09-06T02:25:51.322Z,101054.34
2022-09-06T02:28:17.928Z,101050.78
2022-09-06T02:30:46.398Z,101052.56
2022-09-06T02:33:16.207Z,101045.44
2022-09-06T02:35:49.622Z,101050.69
2022-09-06T02:38:16.293Z,101048.03
2022-09-06T02:40:43.360Z,101052.50
2022-09-06T02:43:09.947Z,101051.63
2022-09-06T02:45:36.574Z,101047.16
2022-09-06T02:48:03.267Z,101048.88
2022-09-06T02:50:29.830Z,101042.69
2022-09-06T02:53:07.005Z,101053.34
2022-09-06T02:55:33.624Z,101052.41
2022-09-06T02:58:00.270Z,101053.34
2022-09-06T03:00:27.132Z,101049.75
2022-09-06T03:02:53.690Z,101050.59
2022-09-06T03:05:20.352Z,101044.41
2022-09-06T03:07:46.958Z,101044.41
2022-09-06T03:10:13.546Z,101046.13
2022-09-06T03:12:41.591Z,101047.00
2022-09-06T03:15:08.626Z,101047.88
2022-09-06T03:17:35.217Z,101047.00
2022-09-06T03:20:01.863Z,101047.00
2022-09-06T03:22:28.454Z,101053.22
2022-09-06T03:24:55.024Z,101047.88
2022-09-06T03:27:21.608Z,101047.88
2022-09-06T03:29:48.189Z,101050.56
2022-09-06T03:32:14.816Z,101050.56
2022-09-06T03:34:41.388Z,101043.41
2022-09-06T03:37:07.989Z,101048.75
2022-09-06T03:39:34.606Z,101049.59
2022-09-06T03:42:01.565Z,101047.81
2022-09-06T03:44:28.167Z,101049.59
2022-09-06T03:46:54.811Z,101046.00
2022-09-06T03:49:21.374Z,101047.81
2022-09-06T03:51:47.939Z,101045.16
2022-09-06T03:54:14.542Z,101054.00
2022-09-06T03:56:41.154Z,101051.34
2022-09-06T03:59:07.725Z,101048.66
2022-09-06T04:01:34.347Z,101054.00
2022-09-06T04:04:01.396Z,101050.47
2022-09-06T04:06:28.359Z,101053.13
2022-09-06T04:08:54.945Z,101055.78
2022-09-06T04:11:21.610Z,101049.59
2022-09-06T04:13:48.729Z,101048.66
2022-09-06T04:16:17.542Z,101049.59
2022-09-06T04:18:44.289Z,101049.59
2022-09-06T04:21:10.857Z,101048.66
2022-09-06T04:23:39.955Z,101055.78
2022-09-06T04:26:06.759Z,101055.78
2022-09-06T04:28:33.340Z,101059.31
2022-09-06T04:31:04.659Z,101058.47
2022-09-06T04:33:32.203Z,101060.28
2022-09-06T04:35:59.720Z,101061.13
2022-09-06T04:38:27.182Z,101055.78
2022-09-06T04:40:55.534Z,101065.59
2022-09-06T04:43:22.742Z,101062.94
2022-09-06T04:45:49.353Z,101057.66
2022-09-06T04:48:15.967Z,101058.53
2022-09-06T04:50:42.560Z,101061.22
2022-09-06T04:53:10.899Z,101062.06
2022-09-06T04:55:37.553Z,101059.41
2022-09-06T04:58:04.674Z,101052.28
2022-09-06T05:00:31.995Z,101049.66
2022-09-06T05:02:59.009Z,101051.47
2022-09-06T05:05:25.776Z,101047.88
2022-09-06T05:07:55.595Z,101045.22
2022-09-06T05:10:22.741Z,101043.47
2022-09-06T05:12:50.176Z,101041.66
2022-09-06T05:15:17.666Z,101048.81
2022-09-06T05:17:44.418Z,101047.88
2022-09-06T05:20:11.252Z,101049.66
2022-09-06T05:22:38.547Z,101051.47
2022-09-06T05:25:05.970Z,101052.31
2022-09-06T05:27:32.540Z,101053.22
2022-09-06T05:29:59.144Z,101055.88
2022-09-06T05:32:25.718Z,101051.47
2022-09-06T05:34:52.286Z,101052.31
2022-09-06T05:37:18.868Z,101047.88
2022-09-06T05:39:45.512Z,101056.78
2022-09-06T05:42:14.928Z,101057.66
2022-09-06T05:44:45.171Z,101048.81
2022-09-06T05:47:11.761Z,101059.47
2022-09-06T05:49:38.318Z,101057.66
2022-09-06T05:52:04.955Z,101063.87
2022-09-06T05:54:31.966Z,101055.00
2022-09-06T05:56:58.543Z,101052.31
2022-09-06T05:59:25.141Z,101059.47
2022-09-06T06:02:02.365Z,101054.22
2022-09-06T06:04:30.876Z,101055.06
2022-09-06T06:06:57.463Z,101056.03
2022-09-06T06:09:24.052Z,101065.88
2022-09-06T06:11:50.644Z,101052.78
2022-09-06T06:14:17.257Z,101058.09
2022-09-06T06:16:43.947Z,101052.84
2022-09-06T06:19:10.586Z,101064.44
2022-09-06T06:21:38.500Z,101058.25
2022-09-06T06:24:05.718Z,101056.47
2022-09-06T06:26:33.848Z,101061.00
2022-09-06T06:29:02.112Z,101061.94
2022-09-06T06:31:32.610Z,101056.69
2022-09-06T06:33:59.407Z,101059.34
2022-09-06T06:36:26.834Z,101058.53
2022-09-06T06:38:54.777Z,101055.91
2022-09-06T06:41:25.650Z,101054.22
2022-09-06T06:43:53.446Z,101057.72
2022-09-06T06:46:20.330Z,101060.47
2022-09-06T06:48:48.638Z,101061.41
2022-09-06T06:51:18.985Z,101060.53
2022-09-06T06:53:47.573Z,101062.28
2022-09-06T06:56:15.459Z,101066.75
2022-09-06T06:58:42.301Z,101065.81
2022-09-06T07:01:10.275Z,101063.91
2022-09-06T07:03:36.942Z,101066.56
2022-09-06T07:06:12.279Z,101067.53
2022-09-06T07:08:39.863Z,101079.91
2022-09-06T07:11:07.033Z,101073.63
2022-09-06T07:13:34.215Z,101072.75
2022-09-06T07:16:28.296Z,101070.97
2022-09-06T07:18:55.010Z,101070.09
2022-09-06T07:21:41.686Z,101067.41
2022-09-06T07:24:09.316Z,101071.81
2022-09-06T07:26:37.625Z,101079.78
2022-09-06T07:29:04.808Z,101080.66
2022-09-06T07:34:19.341Z,101079.72
2022-09-06T07:36:57.321Z,101076.09
2022-09-06T07:39:24.011Z,101071.66
2022-09-06T07:41:50.715Z,101077.78
2022-09-06T07:44:17.303Z,101075.97
2022-09-06T07:46:44.244Z,101079.50
2022-09-06T07:49:10.914Z,101073.22
2022-09-06T07:51:37.513Z,101069.66
2022-09-06T07:54:29.319Z,101077.63
2022-09-06T07:56:51.505Z,101077.56
2022-09-06T07:59:18.124Z,101073.94
2022-09-06T08:01:44.762Z,101074.81
2022-09-06T08:04:15.651Z,101067.69
2022-09-06T08:09:34.776Z,101073.00
2022-09-06T08:12:06.689Z,101078.28
2022-09-06T08:14:33.678Z,101078.28
2022-09-06T08:17:00.259Z,101072.94
2022-09-06T08:19:26.835Z,101070.19
2022-09-06T08:21:56.423Z,101069.34
2022-09-06T08:24:23.022Z,101064.00
2022-09-06T08:26:49.846Z,101064.00
2022-09-06T08:29:16.459Z,101061.44
2022-09-06T08:31:43.901Z,101055.16
2022-09-06T08:34:12.664Z,101050.69
2022-09-06T08:36:39.321Z,101053.34
2022-09-06T08:39:06.989Z,101050.69
2022-09-06T08:41:38.280Z,101052.41
2022-09-06T08:46:59.653Z,101048.88
2022-09-06T08:49:27.175Z,101047.09
2022-09-06T08:52:06.044Z,101053.28
2022-09-06T08:55:03.794Z,101051.56
2022-09-06T08:57:42.334Z,101047.00
2022-09-06T09:00:13.286Z,101045.22
2022-09-06T09:02:48.026Z,101046.94
2022-09-06T09:05:34.400Z,101041.44
2022-09-06T09:08:03.304Z,101040.53
2022-09-06T09:10:32.543Z,101041.53
2022-09-06T09:12:59.435Z,101036.13
2022-09-06T09:15:26.071Z,101038.88
2022-09-06T09:17:52.713Z,101041.63
2022-09-06T09:20:19.273Z,101037.22
2022-09-06T09:22:46.070Z,101030.25
2022-09-06T09:25:23.318Z,101029.38
2022-09-06T09:27:57.650Z,101021.47
2022-09-06T09:33:33.697Z,101019.81
2022-09-06T09:36:02.087Z,101014.56
2022-09-06T09:38:34.992Z,101010.16
2022-09-06T09:41:03.660Z,101011.97
2022-09-06T09:43:53.645Z,100997.78
2022-09-06T09:46:23.225Z,101004.81
2022-09-06T09:49:16.110Z,100994.16
2022-09-06T09:51:47.292Z,100988.84
2022-09-06T09:54:15.105Z,100990.59
2022-09-06T09:56:49.302Z,100984.31
2022-09-06T09:59:24.768Z,100985.19
2022-09-06T10:01:53.991Z,100979.00
2022-09-06T10:04:43.923Z,100978.91
2022-09-06T10:07:16.620Z,100971.84
2022-09-06T10:09:47.222Z,100970.13
2022-09-06T10:12:16.998Z,100962.19
2022-09-06T10:14:45.475Z,100963.09
2022-09-06T10:17:19.886Z,100966.75
2022-09-06T10:19:47.415Z,100961.50
2022-09-06T10:22:32.794Z,100950.00
2022-09-06T10:25:08.287Z,100953.53
2022-09-06T10:27:36.029Z,100940.22
2022-09-06T10:30:06.113Z,100946.41
2022-09-06T10:32:47.873Z,100934.88
2022-09-06T10:35:17.298Z,100932.22
2022-09-06T10:37:55.496Z,100928.69
2022-09-06T10:40:48.009Z,100938.50
2022-09-06T10:43:18.772Z,100934.94
2022-09-06T10:45:49.167Z,100932.28
2022-09-06T10:48:24.264Z,100926.94
2022-09-06T10:51:18.923Z,100923.38
2022-09-06T10:54:01.891Z,100924.22
2022-09-06T10:56:36.894Z,100923.28
2022-09-06T11:02:22.225Z,100918.03
2022-09-06T11:10:31.871Z,100924.06
2022-09-06T11:13:17.437Z,100917.81
2022-09-06T11:15:46.716Z,100923.12
2022-09-06T11:18:18.673Z,100916.06
2022-09-06T11:20:56.261Z,100906.34
2022-09-06T11:23:34.883Z,100904.63
2022-09-06T11:26:22.682Z,100902.91
2022-09-06T11:28:52.853Z,100894.06
2022-09-06T11:34:20.655Z,100888.03
2022-09-06T11:36:56.891Z,100880.03
2022-09-06T11:42:49.389Z,100880.09
2022-09-06T11:45:21.722Z,100883.66
2022-09-06T11:47:54.674Z,100879.19
2022-09-06T11:50:21.170Z,100881.00
2022-09-06T11:53:05.970Z,100880.16
2022-09-06T11:56:09.839Z,100872.09
2022-09-06T11:58:51.320Z,100880.09
2022-09-06T12:01:18.892Z,100864.06
2022-09-06T12:06:39.863Z,100859.59
2022-09-06T12:09:39.928Z,100849.91
2022-09-06T12:12:06.524Z,100851.88
2022-09-06T12:14:40.421Z,100846.63
2022-09-06T12:17:11.312Z,100852.12
2022-09-06T12:19:44.911Z,100851.25
2022-09-06T12:22:26.830Z,100844.19
2022-09-06T12:25:07.869Z,100844.19
2022-09-06T12:27:39.260Z,100837.16
2022-09-06T12:30:09.023Z,100839.81
2022-09-06T12:32:43.795Z,100826.50
2022-09-06T12:38:07.348Z,100806.00
2022-09-06T12:40:35.578Z,100806.75
2022-09-06T12:43:03.431Z,100801.44
2022-09-06T12:45:30.023Z,100802.28
2022-09-06T12:48:10.566Z,100791.72
2022-09-06T12:50:37.275Z,100793.59
2022-09-06T12:53:05.436Z,100801.75
2022-09-06T12:55:37.017Z,100792.13
2022-09-06T12:58:05.264Z,100787.81
2022-09-06T13:00:36.918Z,100783.50
2022-09-06T13:03:05.755Z,100780.06
2022-09-06T13:05:32.324Z,100783.72
2022-09-06T13:08:00.120Z,100776.78
2022-09-06T13:10:27.288Z,100766.28
2022-09-06T13:12:54.163Z,100768.19
2022-09-06T13:15:26.187Z,100763.00
2022-09-06T13:17:53.676Z,100756.88
2022-09-06T13:20:26.325Z,100756.97
2022-09-06T13:22:54.202Z,100753.53
2022-09-06T13:25:21.087Z,100748.03
2022-09-06T13:27:58.141Z,100743.41
2022-09-06T13:30:30.654Z,100753.06
2022-09-06T13:32:57.262Z,100747.56
2022-09-06T13:35:24.770Z,100735.09
2022-09-06T13:37:51.416Z,100739.34
2022-09-06T13:41:11.516Z,100748.19
2022-09-06T13:43:45.767Z,100738.34
2022-09-06T13:46:17.279Z,100731.13
2022-09-06T13:48:45.045Z,100726.66
2022-09-06T13:51:11.829Z,100736.28
2022-09-06T13:53:38.407Z,100730.09
2022-09-06T13:56:08.428Z,100723.84
2022-09-06T13:58:35.958Z,100720.22
2022-09-06T14:01:02.761Z,100709.56
2022-09-06T14:03:31.100Z,100714.84
2022-09-06T14:05:58.104Z,100706.84
2022-09-06T14:08:24.722Z,100713.03
2022-09-06T14:10:51.469Z,100713.03
2022-09-06T14:13:18.454Z,100706.75
2022-09-06T14:15:46.065Z,100715.59
2022-09-06T14:18:16.210Z,100704.94
2022-09-06T14:20:43.139Z,100699.53
2022-09-06T14:23:09.734Z,100701.34
2022-09-06T14:25:36.953Z,100701.28
2022-09-06T14:28:04.212Z,100701.28
2022-09-06T14:30:30.962Z,100704.81
2022-09-06T14:32:57.680Z,100702.16
2022-09-06T14:35:24.284Z,100700.25
2022-09-06T14:37:50.977Z,100697.69
2022-09-06T14:40:17.895Z,100697.59
2022-09-06T14:42:47.607Z,100692.34
2022-09-06T14:45:17.038Z,100689.59
2022-09-06T14:47:43.618Z,100690.44
2022-09-06T14:50:10.433Z,100692.16
2022-09-06T14:52:37.024Z,100693.91
2022-09-06T14:55:03.812Z,100693.91
2022-09-06T14:57:30.400Z,100696.56
2022-09-06T14:59:56.983Z,100690.31
2022-09-06T15:02:23.622Z,100690.31
2022-09-06T15:04:50.228Z,100696.47
2022-09-06T15:07:16.813Z,100701.81
2022-09-06T15:09:43.439Z,100700.94
2022-09-06T15:12:10.042Z,100694.69
2022-09-06T15:14:37.444Z,100700.00
2022-09-06T15:17:08.718Z,100697.25
2022-09-06T15:19:36.959Z,100694.59
2022-09-06T15:22:04.533Z,100700.75
2022-09-06T15:24:31.485Z,100700.75
2022-09-06T15:26:58.493Z,100706.09
2022-09-06T15:29:26.854Z,100708.75
2022-09-06T15:31:53.754Z,100710.53
2022-09-06T15:34:21.254Z,100706.97
2022-09-06T15:36:47.997Z,100715.88
2022-09-06T15:39:14.645Z,100710.44
2022-09-06T15:41:41.233Z,100713.09
2022-09-06T15:44:12.404Z,100705.97
2022-09-06T15:46:48.028Z,100705.03
2022-09-06T15:49:15.842Z,100711.31
2022-09-06T15:51:42.840Z,100714.81
2022-09-06T15:54:09.933Z,100709.44
2022-09-06T15:56:36.553Z,100711.22
2022-09-06T15:59:03.139Z,100704.09
2022-09-06T16:01:29.810Z,100705.81
2022-09-06T16:04:03.379Z,100705.81
2022-09-06T16:06:31.543Z,100709.34
2022-09-06T16:09:19.367Z,100709.25
2022-09-06T16:11:46.081Z,100719.03
2022-09-06T16:14:13.832Z,100724.38
2022-09-06T16:16:41.053Z,100743.88
2022-09-06T16:19:08.301Z,100742.06
2022-09-06T16:21:36.702Z,100756.25
2022-09-06T16:24:08.057Z,100754.44
2022-09-06T16:26:36.668Z,100748.25
2022-09-06T16:29:03.853Z,100752.66
2022-09-06T16:31:30.524Z,100756.25
2022-09-06T16:33:57.902Z,100749.09
2022-09-06T16:36:24.722Z,100747.34
2022-09-06T16:38:51.321Z,100744.66
2022-09-06T16:41:39.402Z,100749.06
2022-09-06T16:44:07.121Z,100744.66
2022-09-06T16:46:33.753Z,100733.06
2022-09-06T16:49:01.460Z,100736.59
2022-09-06T16:51:28.122Z,100734.78
2022-09-06T16:53:55.045Z,100729.44
2022-09-06T16:56:26.100Z,100735.63
2022-09-06T16:58:57.377Z,100729.38
2022-09-06T17:01:27.542Z,100732.97
2022-09-06T17:03:54.231Z,100725.84
2022-09-06T17:06:21.024Z,100728.50
2022-09-06T17:08:47.687Z,100732.88
2022-09-06T17:11:16.680Z,100729.38
2022-09-06T17:13:44.314Z,100732.88
2022-09-06T17:16:29.477Z,100740.88
2022-09-06T17:18:56.129Z,100752.41
2022-09-06T17:21:23.574Z,100752.41
2022-09-06T17:23:50.577Z,100761.28
2022-09-06T17:26:21.233Z,100758.59
2022-09-06T17:28:51.059Z,100755.00
2022-09-06T17:31:22.237Z,100755.00
2022-09-06T17:33:50.477Z,100747.00
2022-09-06T17:36:19.054Z,100753.19
2022-09-06T17:38:48.828Z,100769.16
2022-09-06T17:41:20.468Z,100767.38
2022-09-06T17:43:47.526Z,100764.59
2022-09-06T17:46:14.304Z,100768.22
2022-09-06T17:48:41.084Z,100770.81
2022-09-06T17:51:08.116Z,100769.06
2022-09-06T17:53:35.322Z,100771.69
2022-09-06T17:56:09.388Z,100770.81
2022-09-06T17:58:36.662Z,100776.16
2022-09-06T18:01:13.926Z,100766.34
2022-09-06T18:03:41.322Z,100761.03
2022-09-06T18:06:13.358Z,100766.34
2022-09-06T18:08:41.159Z,100767.22
2022-09-06T18:11:15.862Z,100765.41
2022-09-06T18:13:43.006Z,100760.94
2022-09-06T18:16:10.895Z,100763.59
2022-09-06T18:18:37.510Z,100768.94
2022-09-06T18:21:04.509Z,100765.31
2022-09-06T18:23:31.281Z,100765.31
2022-09-06T18:25:58.794Z,100765.31
2022-09-06T18:28:25.610Z,100774.09
2022-09-06T18:30:53.672Z,100769.69
2022-09-06T18:33:23.692Z,100778.53
2022-09-06T18:35:50.752Z,100778.53
2022-09-06T18:38:17.781Z,100784.75
2022-09-06T18:40:54.488Z,100779.44
2022-09-06T18:43:22.450Z,100781.22
2022-09-06T18:45:50.507Z,100773.22
2022-09-06T18:48:17.942Z,100769.63
2022-09-06T18:50:44.619Z,100775.81
2022-09-06T18:53:11.496Z,100772.19
2022-09-06T18:55:42.947Z,100775.72
2022-09-06T18:58:10.799Z,100774.88
2022-09-06T19:00:37.880Z,100776.59
2022-09-06T19:03:04.710Z,100781.84
2022-09-06T19:05:31.352Z,100780.09
2022-09-06T19:07:57.934Z,100779.25
2022-09-06T19:10:24.505Z,100786.28
2022-09-06T19:12:53.207Z,100780.97
2022-09-06T19:15:20.072Z,100785.38
2022-09-06T19:17:48.745Z,100777.38
2022-09-06T19:20:15.365Z,100777.38
2022-09-06T19:22:41.925Z,100777.38
2022-09-06T19:25:10.250Z,100779.09
2022-09-06T19:27:37.885Z,100771.09
2022-09-06T19:30:06.891Z,100773.75
2022-09-06T19:32:34.083Z,100771.09
2022-09-06T19:35:03.497Z,100774.62
2022-09-06T19:37:30.174Z,100769.28
2022-09-06T19:39:56.799Z,100777.28
2022-09-06T19:42:23.408Z,100773.66
2022-09-06T19:44:50.032Z,100776.34
2022-09-06T19:47:17.819Z,100771.00
2022-09-06T19:49:44.781Z,100768.34
2022-09-06T19:52:11.597Z,100766.53
2022-09-06T19:54:38.487Z,100770.06
2022-09-06T19:57:06.032Z,100760.28
2022-09-06T19:59:36.055Z,100757.62
2022-09-06T20:02:03.469Z,100757.62
2022-09-06T20:04:30.287Z,100752.28
2022-09-06T20:06:57.601Z,100750.50
2022-09-06T20:09:24.353Z,100738.03
2022-09-06T20:11:51.413Z,100748.69
2022-09-06T20:14:18.020Z,100741.53
2022-09-06T20:16:44.804Z,100745.06
2022-09-06T20:19:12.177Z,100744.22
2022-09-06T20:21:38.839Z,100750.41
2022-09-06T20:24:05.550Z,100745.06
2022-09-06T20:26:32.144Z,100746.88
2022-09-06T20:28:59.898Z,100755.72
2022-09-06T20:31:26.718Z,100762.75
2022-09-06T20:33:53.360Z,100757.44
2022-09-06T20:36:20.071Z,100747.62
2022-09-06T20:38:47.063Z,100747.62
2022-09-06T20:41:15.760Z,100749.44
2022-09-06T20:43:42.689Z,100753.81
2022-09-06T20:46:14.745Z,100743.16
2022-09-06T20:48:44.677Z,100744.03
2022-09-06T20:51:21.516Z,100745.78
2022-09-06T20:53:53.491Z,100749.34
2022-09-06T20:56:24.943Z,100752.91
2022-09-06T20:58:56.400Z,100751.94
2022-09-06T21:01:24.982Z,100760.91
2022-09-06T21:03:53.374Z,100749.28
2022-09-06T21:06:20.526Z,100758.16
2022-09-06T21:08:47.537Z,100752.81
2022-09-06T21:11:14.148Z,100740.44
2022-09-06T21:13:40.768Z,100742.16
2022-09-06T21:16:07.405Z,100743.00
2022-09-06T21:18:34.489Z,100739.50
2022-09-06T21:21:07.890Z,100732.34
2022-09-06T21:23:36.842Z,100740.34
2022-09-06T21:26:04.505Z,100743.88
2022-09-06T21:28:33.271Z,100738.53
2022-09-06T21:31:01.670Z,100734.06
2022-09-06T21:33:31.770Z,100741.09
2022-09-06T21:36:03.690Z,100736.72
2022-09-06T21:38:31.149Z,100736.66
2022-09-06T21:40:58.065Z,100729.53
2022-09-06T21:43:24.780Z,100727.78
2022-09-06T21:45:51.610Z,100735.72
2022-09-06T21:48:18.830Z,100733.09
2022-09-06T21:50:47.143Z,100723.34
2022-09-06T21:53:13.969Z,100731.34
2022-09-06T21:55:40.850Z,100727.72
2022-09-06T21:58:07.519Z,100729.44
2022-09-06T22:00:34.717Z,100734.75
2022-09-06T22:03:01.429Z,100733.91
2022-09-06T22:05:28.015Z,100726.88
2022-09-06T22:07:54.777Z,100725.91
2022-09-06T22:10:22.918Z,100724.97
2022-09-06T22:12:49.601Z,100729.44
2022-09-06T22:15:16.242Z,100727.63
2022-09-06T22:17:42.907Z,100730.28
2022-09-06T22:20:11.863Z,100734.66
2022-09-06T22:22:38.590Z,100729.34
2022-09-06T22:25:05.580Z,100731.16
2022-09-06T22:27:32.155Z,100732.84
2022-09-06T22:29:58.730Z,100730.19
2022-09-06T22:32:25.440Z,100727.53
2022-09-06T22:34:52.029Z,100728.41
2022-09-06T22:37:18.678Z,100725.75
2022-09-06T22:39:45.289Z,100732.81
2022-09-06T22:42:11.922Z,100730.12
2022-09-06T22:44:38.878Z,100724.81
2022-09-06T22:47:05.564Z,100728.31
2022-09-06T22:49:32.161Z,100726.53
2022-09-06T22:51:58.731Z,100723.84
2022-09-06T22:54:25.617Z,100726.53
2022-09-06T22:56:52.203Z,100728.22
2022-09-06T22:59:18.904Z,100716.72
2022-09-06T23:01:45.519Z,100718.44
2022-09-06T23:04:12.144Z,100715.75
2022-09-06T23:06:38.761Z,100718.44
2022-09-06T23:09:05.841Z,100722.84
2022-09-06T23:11:32.607Z,100720.19
2022-09-06T23:13:59.775Z,100710.38
2022-09-06T23:16:27.242Z,100716.56
2022-09-06T23:18:54.601Z,100713.88
2022-09-06T23:21:22.371Z,100714.75
2022-09-06T23:23:50.072Z,100712.09
2022-09-06T23:26:18.257Z,100711.13
2022-09-06T23:28:44.832Z,100709.31
2022-09-06T23:31:13.561Z,100703.12
2022-09-06T23:33:40.404Z,100716.47
2022-09-06T23:36:08.603Z,100718.19
2022-09-06T23:38:35.918Z,100709.22
2022-09-06T23:41:02.927Z,100707.44
2022-09-06T23:43:29.760Z,100698.50
2022-09-06T23:45:56.353Z,100705.53
2022-09-06T23:48:22.947Z,100704.69
2022-09-06T23:50:49.662Z,100710.88
2022-09-06T23:53:16.890Z,100699.34
2022-09-06T23:55:43.737Z,100701.06
2022-09-06T23:58:10.400Z,100704.69
